sensor_id;sensor_type;location;lat;lon;timestamp;pressure;altitude;pressure_sealevel;temperature;humidity
26719;BME280;14326;50.794;6.060;2024-03-17T00:01:38;100362.19;;;6.33;100.00
26719;BME280;14326;50.794;6.060;2024-03-17T00:04:03;100360.53;;;6.36;100.00
26719;BME280;14326;50.794;6.060;2024-03-17T00:06:32;100354.72;;;6.45;100.00
26719;BME280;14326;50.794;6.060;2024-03-17T00:08:58;100352.06;;;6.45;100.00
26719;BME280;14326;50.794;6.060;2024-03-17T00:11:26;100351.41;;;6.50;100.00
26719;BME280;14326;50.794;6.060;2024-03-17T00:13:51;100348.91;;;6.53;100.00
26719;BME280;14326;50.794;6.060;2024-03-17T00:16:18;100349.75;;;6.54;100.00
26719;BME280;14326;50.794;6.060;2024-03-17T00:18:44;100352.47;;;6.55;100.00
26719;BME280;14326;50.794;6.060;2024-03-17T00:21:11;100348.31;;;6.62;100.00
26719;BME280;14326;50.794;6.060;2024-03-17T00:23:39;100350.00;;;6.60;100.00
26719;BME280;14326;50.794;6.060;2024-03-17T00:26:05;100346.50;;;6.61;100.00
26719;BME280;14326;50.794;6.060;2024-03-17T00:28:31;100349.97;;;6.58;100.00
26719;BME280;14326;50.794;6.060;2024-03-17T00:30:58;100346.63;;;6.64;100.00
26719;BME280;14326;50.794;6.060;2024-03-17T00:33:23;100343.69;;;6.56;100.00
26719;BME280;14326;50.794;6.060;2024-03-17T00:35:50;100343.69;;;6.56;100.00
26719;BME280;14326;50.794;6.060;2024-03-17T00:38:16;100339.25;;;6.55;100.00
26719;BME280;14326;50.794;6.060;2024-03-17T00:40:44;100343.69;;;6.56;100.00
26719;BME280;14326;50.794;6.060;2024-03-17T00:43:10;100336.44;;;6.51;100.00
26719;BME280;14326;50.794;6.060;2024-03-17T00:45:37;100340.06;;;6.53;100.00
26719;BME280;14326;50.794;6.060;2024-03-17T00:48:03;100326.78;;;6.51;100.00
26719;BME280;14326;50.794;6.060;2024-03-17T00:50:31;100318.94;;;6.54;100.00
26719;BME280;14326;50.794;6.060;2024-03-17T00:52:57;100322.47;;;6.53;100.00
26719;BME280;14326;50.794;6.060;2024-03-17T00:55:23;100318.94;;;6.54;100.00
26719;BME280;14326;50.794;6.060;2024-03-17T00:57:50;100315.38;;;6.52;100.00
26719;BME280;14326;50.794;6.060;2024-03-17T01:00:18;100315.38;;;6.52;100.00
26719;BME280;14326;50.794;6.060;2024-03-17T01:02:43;100321.56;;;6.53;100.00
26719;BME280;14326;50.794;6.060;2024-03-17T01:05:10;100317.88;;;6.49;100.00
26719;BME280;14326;50.794;6.060;2024-03-17T01:07:36;100309.97;;;6.49;100.00
26719;BME280;14326;50.794;6.060;2024-03-17T01:10:03;100297.13;;;6.36;100.00
26719;BME280;14326;50.794;6.060;2024-03-17T01:12:29;100305.25;;;6.41;100.00
26719;BME280;14326;50.794;6.060;2024-03-17T01:14:57;100299.91;;;6.39;100.00
26719;BME280;14326;50.794;6.060;2024-03-17T01:17:22;100304.97;;;6.33;100.00
26719;BME280;14326;50.794;6.060;2024-03-17T01:19:49;100300.91;;;6.19;100.00
26719;BME280;14326;50.794;6.060;2024-03-17T01:22:16;100295.84;;;6.25;100.00
26719;BME280;14326;50.794;6.060;2024-03-17T01:24:43;100297.44;;;6.20;100.00
26719;BME280;14326;50.794;6.060;2024-03-17T01:27:11;100296.34;;;6.15;100.00
26719;BME280;14326;50.794;6.060;2024-03-17T01:29:41;100296.41;;;6.16;100.00
26719;BME280;14326;50.794;6.060;2024-03-17T01:32:08;100287.53;;;6.14;100.00
26719;BME280;14326;50.794;6.060;2024-03-17T01:34:36;100283.88;;;6.11;100.00
26719;BME280;14326;50.794;6.060;2024-03-17T01:37:01;100280.28;;;6.09;100.00
26719;BME280;14326;50.794;6.060;2024-03-17T01:39:29;100275.66;;;6.03;100.00
26719;BME280;14326;50.794;6.060;2024-03-17T01:41:54;100280.06;;;6.03;100.00
26719;BME280;14326;50.794;6.060;2024-03-17T01:44:22;100281.63;;;5.98;100.00
26719;BME280;14326;50.794;6.060;2024-03-17T01:46:49;100278.00;;;5.96;100.00
26719;BME280;14326;50.794;6.060;2024-03-17T01:49:17;100277.06;;;5.94;100.00
26719;BME280;14326;50.794;6.060;2024-03-17T01:51:44;100274.25;;;5.89;100.00
26719;BME280;14326;50.794;6.060;2024-03-17T01:54:12;100279.31;;;5.85;100.00
26719;BME280;14326;50.794;6.060;2024-03-17T01:56:38;100286.16;;;5.80;100.00
26719;BME280;14326;50.794;6.060;2024-03-17T01:59:07;100282.56;;;5.77;100.00
26719;BME280;14326;50.794;6.060;2024-03-17T02:01:33;100269.31;;;5.76;100.00
26719;BME280;14326;50.794;6.060;2024-03-17T02:03:59;100272.72;;;5.73;100.00
26719;BME280;14326;50.794;6.060;2024-03-17T02:06:26;100268.34;;;5.74;100.00
26719;BME280;14326;50.794;6.060;2024-03-17T02:08:54;100271.56;;;5.65;100.00
26719;BME280;14326;50.794;6.060;2024-03-17T02:11:27;100275.03;;;5.64;100.00
26719;BME280;14326;50.794;6.060;2024-03-17T02:13:56;100274.38;;;5.70;100.00
26719;BME280;14326;50.794;6.060;2024-03-17T02:16:21;100272.56;;;5.69;100.00
26719;BME280;14326;50.794;6.060;2024-03-17T02:18:48;100272.31;;;5.63;100.00
26719;BME280;14326;50.794;6.060;2024-03-17T02:21:15;100268.59;;;5.58;100.00
26719;BME280;14326;50.794;6.060;2024-03-17T02:23:43;100269.75;;;5.64;100.00
26719;BME280;14326;50.794;6.060;2024-03-17T02:26:10;100271.66;;;5.68;100.00
26719;BME280;14326;50.794;6.060;2024-03-17T02:28:39;100257.56;;;5.68;100.00
26719;BME280;14326;50.794;6.060;2024-03-17T02:31:08;100264.72;;;5.70;100.00
26719;BME280;14326;50.794;6.060;2024-03-17T02:33:34;100257.69;;;5.71;100.00
26719;BME280;14326;50.794;6.060;2024-03-17T02:36:01;100259.44;;;5.70;100.00
26719;BME280;14326;50.794;6.060;2024-03-17T02:38:29;100253.13;;;5.67;100.00
26719;BME280;14326;50.794;6.060;2024-03-17T02:41:17;100255.72;;;5.65;100.00
26719;BME280;14326;50.794;6.060;2024-03-17T02:43:44;100246.69;;;5.60;100.00
26719;BME280;14326;50.794;6.060;2024-03-17T02:46:11;100250.19;;;5.59;100.00
26719;BME280;14326;50.794;6.060;2024-03-17T02:48:38;100243.88;;;5.56;100.00
26719;BME280;14326;50.794;6.060;2024-03-17T02:51:10;100248.19;;;5.54;100.00
26719;BME280;14326;50.794;6.060;2024-03-17T02:53:36;100248.09;;;5.51;100.00
26719;BME280;14326;50.794;6.060;2024-03-17T02:56:03;100241.97;;;5.52;100.00
26719;BME280;14326;50.794;6.060;2024-03-17T02:58:33;100237.69;;;5.55;100.00
26719;BME280;14326;50.794;6.060;2024-03-17T03:01:00;100246.34;;;5.51;100.00
26719;BME280;14326;50.794;6.060;2024-03-17T03:03:26;100243.31;;;5.41;100.00
26719;BME280;14326;50.794;6.060;2024-03-17T03:05:53;100249.72;;;5.47;100.00
26719;BME280;14326;50.794;6.060;2024-03-17T03:08:22;100247.13;;;5.49;100.00
26719;BME280;14326;50.794;6.060;2024-03-17T03:10:48;100247.19;;;5.50;100.00
26719;BME280;14326;50.794;6.060;2024-03-17T03:13:15;100240.09;;;5.49;100.00
26719;BME280;14326;50.794;6.060;2024-03-17T03:15:43;100235.00;;;5.54;100.00
26719;BME280;14326;50.794;6.060;2024-03-17T03:18:10;100232.44;;;5.55;100.00
26719;BME280;14326;50.794;6.060;2024-03-17T03:20:36;100242.88;;;5.52;100.00
26719;BME280;14326;50.794;6.060;2024-03-17T03:23:03;100235.00;;;5.54;100.00
26719;BME280;14326;50.794;6.060;2024-03-17T03:25:30;100228.72;;;5.50;100.00
26719;BME280;14326;50.794;6.060;2024-03-17T03:27:57;100238.28;;;5.48;100.00
26719;BME280;14326;50.794;6.060;2024-03-17T03:30:23;100221.78;;;5.52;100.00
26719;BME280;14326;50.794;6.060;2024-03-17T03:32:51;100224.50;;;5.55;100.00
26719;BME280;14326;50.794;6.060;2024-03-17T03:35:18;100221.81;;;5.54;100.00
26719;BME280;14326;50.794;6.060;2024-03-17T03:37:44;100224.50;;;5.55;100.00
26719;BME280;14326;50.794;6.060;2024-03-17T03:40:12;100214.78;;;5.54;100.00
26719;BME280;14326;50.794;6.060;2024-03-17T03:42:41;100213.84;;;5.52;100.00
26719;BME280;14326;50.794;6.060;2024-03-17T03:45:08;100216.72;;;5.58;100.00
26719;BME280;14326;50.794;6.060;2024-03-17T03:47:37;100221.22;;;5.61;100.00
26719;BME280;14326;50.794;6.060;2024-03-17T03:50:07;100215.94;;;5.61;100.00
26719;BME280;14326;50.794;6.060;2024-03-17T03:52:34;100217.97;;;5.68;100.00
26719;BME280;14326;50.794;6.060;2024-03-17T03:55:26;100208.81;;;5.58;100.00
26719;BME280;14326;50.794;6.060;2024-03-17T03:57:53;100214.25;;;5.63;100.00
26719;BME280;14326;50.794;6.060;2024-03-17T04:00:20;100207.97;;;5.59;100.00
26719;BME280;14326;50.794;6.060;2024-03-17T04:02:49;100207.97;;;5.59;100.00
26719;BME280;14326;50.794;6.060;2024-03-17T04:05:16;100208.22;;;5.65;100.00
26719;BME280;14326;50.794;6.060;2024-03-17T04:07:42;100202.06;;;5.66;100.00
26719;BME280;14326;50.794;6.060;2024-03-17T04:10:11;100200.34;;;5.67;100.00
26719;BME280;14326;50.794;6.060;2024-03-17T04:12:40;100200.50;;;5.71;100.00
26719;BME280;14326;50.794;6.060;2024-03-17T04:15:08;100203.03;;;5.68;100.00
26719;BME280;14326;50.794;6.060;2024-03-17T04:17:35;100196.25;;;5.75;100.00
26719;BME280;14326;50.794;6.060;2024-03-17T04:20:03;100194.44;;;5.74;100.00
26719;BME280;14326;50.794;6.060;2024-03-17T04:22:30;100197.09;;;5.74;100.00
26719;BME280;14326;50.794;6.060;2024-03-17T04:24:57;100201.22;;;5.67;100.00
26719;BME280;14326;50.794;6.060;2024-03-17T04:27:24;100195.41;;;5.76;100.00
26719;BME280;14326;50.794;6.060;2024-03-17T04:29:54;100192.72;;;5.74;100.00
26719;BME280;14326;50.794;6.060;2024-03-17T04:32:21;100191.81;;;5.74;100.00
26719;BME280;14326;50.794;6.060;2024-03-17T04:34:47;100181.75;;;5.64;100.00
26719;BME280;14326;50.794;6.060;2024-03-17T04:37:14;100182.97;;;5.50;100.00
26719;BME280;14326;50.794;6.060;2024-03-17T04:39:42;100179.56;;;5.52;100.00
26719;BME280;14326;50.794;6.060;2024-03-17T04:42:10;100183.13;;;5.54;100.00
26719;BME280;14326;50.794;6.060;2024-03-17T04:44:37;100180.88;;;5.41;100.00
26719;BME280;14326;50.794;6.060;2024-03-17T04:47:05;100181.78;;;5.42;100.00
26719;BME280;14326;50.794;6.060;2024-03-17T04:49:32;100185.25;;;5.41;100.00
26719;BME280;14326;50.794;6.060;2024-03-17T04:51:59;100178.28;;;5.43;100.00
26719;BME280;14326;50.794;6.060;2024-03-17T04:54:25;100177.34;;;5.41;100.00
26719;BME280;14326;50.794;6.060;2024-03-17T04:56:52;100173.69;;;5.37;100.00
26719;BME280;14326;50.794;6.060;2024-03-17T04:59:18;100174.94;;;5.24;100.00
26719;BME280;14326;50.794;6.060;2024-03-17T05:01:45;100173.44;;;5.31;100.00
26719;BME280;14326;50.794;6.060;2024-03-17T05:04:13;100167.88;;;5.23;100.00
26719;BME280;14326;50.794;6.060;2024-03-17T05:06:40;100171.13;;;5.16;100.00
26719;BME280;14326;50.794;6.060;2024-03-17T05:09:11;100183.25;;;5.13;100.00
26719;BME280;14326;50.794;6.060;2024-03-17T05:11:38;100174.41;;;5.11;100.00
26719;BME280;14326;50.794;6.060;2024-03-17T05:14:05;100180.44;;;5.08;100.00
26719;BME280;14326;50.794;6.060;2024-03-17T05:16:32;100174.41;;;5.11;100.00
26719;BME280;14326;50.794;6.060;2024-03-17T05:18:58;100176.06;;;5.09;100.00
26719;BME280;14326;50.794;6.060;2024-03-17T05:21:26;100177.41;;;4.98;100.00
26719;BME280;14326;50.794;6.060;2024-03-17T05:23:55;100173.53;;;4.89;100.00
26719;BME280;14326;50.794;6.060;2024-03-17T05:27:25;100174.19;;;4.84;100.00
26719;BME280;14326;50.794;6.060;2024-03-17T05:29:52;100177.69;;;4.83;100.00
26719;BME280;14326;50.794;6.060;2024-03-17T05:32:18;100177.69;;;4.83;100.00
26719;BME280;14326;50.794;6.060;2024-03-17T05:34:45;100185.34;;;4.77;100.00
26719;BME280;14326;50.794;6.060;2024-03-17T05:37:12;100170.38;;;4.76;100.00
26719;BME280;14326;50.794;6.060;2024-03-17T05:39:39;100181.31;;;4.64;100.00
26719;BME280;14326;50.794;6.060;2024-03-17T05:42:06;100181.41;;;4.67;100.00
26719;BME280;14326;50.794;6.060;2024-03-17T05:44:34;100183.22;;;4.68;100.00
26719;BME280;14326;50.794;6.060;2024-03-17T05:47:16;100178.06;;;4.71;100.00
26719;BME280;14326;50.794;6.060;2024-03-17T05:49:43;100179.03;;;4.73;100.00
26719;BME280;14326;50.794;6.060;2024-03-17T05:52:09;100188.00;;;4.78;100.00
26719;BME280;14326;50.794;6.060;2024-03-17T05:54:36;100180.00;;;4.75;100.00
26719;BME280;14326;50.794;6.060;2024-03-17T05:57:03;100189.81;;;4.79;100.00
26719;BME280;14326;50.794;6.060;2024-03-17T05:59:30;100181.91;;;4.79;100.00
26719;BME280;14326;50.794;6.060;2024-03-17T06:01:58;100183.91;;;4.85;100.00
26719;BME280;14326;50.794;6.060;2024-03-17T06:04:26;100185.53;;;4.81;100.00
26719;BME280;14326;50.794;6.060;2024-03-17T06:06:53;100191.94;;;4.88;100.00
26719;BME280;14326;50.794;6.060;2024-03-17T06:09:19;100180.31;;;4.83;100.00
26719;BME280;14326;50.794;6.060;2024-03-17T06:11:46;100183.56;;;4.77;100.00
26719;BME280;14326;50.794;6.060;2024-03-17T06:14:13;100164.44;;;4.81;100.00
26719;BME280;14326;50.794;6.060;2024-03-17T06:16:39;100178.13;;;4.93;100.00
26719;BME280;14326;50.794;6.060;2024-03-17T06:19:07;100166.75;;;4.94;100.00
26719;BME280;14326;50.794;6.060;2024-03-17T06:21:34;100163.63;;;5.05;100.00
26719;BME280;14326;50.794;6.060;2024-03-17T06:24:01;100165.78;;;5.15;100.00
26719;BME280;14326;50.794;6.060;2024-03-17T06:26:27;100163.69;;;5.28;100.00
26719;BME280;14326;50.794;6.060;2024-03-17T06:28:56;100162.13;;;5.33;100.00
26719;BME280;14326;50.794;6.060;2024-03-17T06:31:23;100151.75;;;5.62;100.00
26719;BME280;14326;50.794;6.060;2024-03-17T06:33:50;100139.16;;;6.51;100.00
26719;BME280;14326;50.794;6.060;2024-03-17T06:36:18;100130.06;;;8.16;100.00
26719;BME280;14326;50.794;6.060;2024-03-17T06:38:44;100118.25;;;9.91;100.00
26719;BME280;14326;50.794;6.060;2024-03-17T06:41:11;100118.16;;;11.43;96.05
26719;BME280;14326;50.794;6.060;2024-03-17T06:43:37;100101.00;;;12.72;83.69
26719;BME280;14326;50.794;6.060;2024-03-17T06:46:04;100103.50;;;13.98;73.07
26719;BME280;14326;50.794;6.060;2024-03-17T06:48:32;100114.28;;;14.22;67.01
26719;BME280;14326;50.794;6.060;2024-03-17T06:51:00;100121.34;;;13.99;66.04
26719;BME280;14326;50.794;6.060;2024-03-17T06:53:28;100124.56;;;13.28;69.69
26719;BME280;14326;50.794;6.060;2024-03-17T06:55:55;100130.06;;;12.42;74.29
26719;BME280;14326;50.794;6.060;2024-03-17T06:58:23;100148.59;;;11.59;80.43
26719;BME280;14326;50.794;6.060;2024-03-17T07:00:53;100157.13;;;10.78;87.61
26719;BME280;14326;50.794;6.060;2024-03-17T07:03:20;100157.28;;;10.36;91.29
26719;BME280;14326;50.794;6.060;2024-03-17T07:05:51;100162.56;;;9.92;95.96
26719;BME280;14326;50.794;6.060;2024-03-17T07:08:18;100170.31;;;9.81;98.30
26719;BME280;14326;50.794;6.060;2024-03-17T07:10:56;100169.38;;;9.79;100.00
26719;BME280;14326;50.794;6.060;2024-03-17T07:13:22;100168.09;;;9.61;100.00
26719;BME280;14326;50.794;6.060;2024-03-17T07:15:49;100166.69;;;9.36;100.00
26719;BME280;14326;50.794;6.060;2024-03-17T07:18:16;100161.94;;;9.23;100.00
26719;BME280;14326;50.794;6.060;2024-03-17T07:20:43;100156.41;;;9.14;100.00
26719;BME280;14326;50.794;6.060;2024-03-17T07:23:11;100155.50;;;9.12;100.00
26719;BME280;14326;50.794;6.060;2024-03-17T07:25:38;100154.50;;;9.08;100.00
26719;BME280;14326;50.794;6.060;2024-03-17T07:28:06;100166.00;;;9.09;100.00
26719;BME280;14326;50.794;6.060;2024-03-17T07:30:33;100160.56;;;9.01;100.00
26719;BME280;14326;50.794;6.060;2024-03-17T07:32:59;100160.50;;;8.99;100.00
26719;BME280;14326;50.794;6.060;2024-03-17T07:35:26;100155.19;;;8.99;100.00
26719;BME280;14326;50.794;6.060;2024-03-17T07:37:52;100147.88;;;8.89;100.00
26719;BME280;14326;50.794;6.060;2024-03-17T07:40:20;100146.44;;;9.03;100.00
26719;BME280;14326;50.794;6.060;2024-03-17T07:42:46;100142.47;;;9.22;100.00
26719;BME280;14326;50.794;6.060;2024-03-17T07:45:14;100132.41;;;9.47;100.00
26719;BME280;14326;50.794;6.060;2024-03-17T07:47:42;100131.25;;;9.76;100.00
26719;BME280;14326;50.794;6.060;2024-03-17T07:50:08;100134.28;;;9.96;100.00
26719;BME280;14326;50.794;6.060;2024-03-17T07:52:35;100124.28;;;10.26;100.00
26719;BME280;14326;50.794;6.060;2024-03-17T07:55:01;100127.72;;;10.70;98.59
26719;BME280;14326;50.794;6.060;2024-03-17T07:57:28;100130.03;;;11.01;95.33
26719;BME280;14326;50.794;6.060;2024-03-17T07:59:55;100127.59;;;11.18;91.90
26719;BME280;14326;50.794;6.060;2024-03-17T08:02:23;100129.91;;;11.56;90.92
26719;BME280;14326;50.794;6.060;2024-03-17T08:04:50;100119.78;;;11.95;89.50
26719;BME280;14326;50.794;6.060;2024-03-17T08:07:16;100125.41;;;12.22;87.11
26719;BME280;14326;50.794;6.060;2024-03-17T08:09:43;100121.94;;;12.32;85.50
26719;BME280;14326;50.794;6.060;2024-03-17T08:12:09;100119.16;;;12.19;84.53
26719;BME280;14326;50.794;6.060;2024-03-17T08:14:36;100120.84;;;12.11;83.83
26719;BME280;14326;50.794;6.060;2024-03-17T08:17:03;100110.19;;;12.12;84.25
26719;BME280;14326;50.794;6.060;2024-03-17T08:19:32;100111.16;;;12.20;84.31
26719;BME280;14326;50.794;6.060;2024-03-17T08:21:59;100105.13;;;12.40;84.74
26719;BME280;14326;50.794;6.060;2024-03-17T08:24:25;100106.22;;;12.61;83.15
26719;BME280;14326;50.794;6.060;2024-03-17T08:26:52;100105.28;;;12.53;82.47
26719;BME280;14326;50.794;6.060;2024-03-17T08:29:19;100107.13;;;12.63;80.77
26719;BME280;14326;50.794;6.060;2024-03-17T08:31:45;100117.66;;;12.47;81.19
26719;BME280;14326;50.794;6.060;2024-03-17T08:34:12;100105.34;;;12.64;82.07
26719;BME280;14326;50.794;6.060;2024-03-17T08:36:40;100101.19;;;12.99;81.50
26719;BME280;14326;50.794;6.060;2024-03-17T08:39:06;100094.28;;;13.29;80.13
26719;BME280;14326;50.794;6.060;2024-03-17T08:41:34;100088.22;;;13.60;78.27
26719;BME280;14326;50.794;6.060;2024-03-17T08:44:01;100089.03;;;13.41;75.95
26719;BME280;14326;50.794;6.060;2024-03-17T08:46:28;100097.09;;;13.48;77.53
26719;BME280;14326;50.794;6.060;2024-03-17T08:48:54;100097.00;;;13.38;78.01
26719;BME280;14326;50.794;6.060;2024-03-17T08:51:21;100092.53;;;13.34;78.78
26719;BME280;14326;50.794;6.060;2024-03-17T08:53:49;100093.41;;;13.30;76.36
26719;BME280;14326;50.794;6.060;2024-03-17T08:56:16;100093.38;;;13.24;80.24
26719;BME280;14326;50.794;6.060;2024-03-17T08:58:42;100090.69;;;13.22;79.06
26719;BME280;14326;50.794;6.060;2024-03-17T09:01:09;100092.41;;;13.14;79.85
26719;BME280;14326;50.794;6.060;2024-03-17T09:03:40;100082.56;;;13.10;80.80
26719;BME280;14326;50.794;6.060;2024-03-17T09:06:14;100091.53;;;13.20;82.06
26719;BME280;14326;50.794;6.060;2024-03-17T09:08:41;100098.78;;;13.37;82.21
26719;BME280;14326;50.794;6.060;2024-03-17T09:11:12;100097.91;;;13.37;78.40
26719;BME280;14326;50.794;6.060;2024-03-17T09:13:39;100100.50;;;13.26;80.46
26719;BME280;14326;50.794;6.060;2024-03-17T09:16:06;100104.97;;;13.32;81.00
26719;BME280;14326;50.794;6.060;2024-03-17T09:18:36;100094.28;;;13.29;80.18
26719;BME280;14326;50.794;6.060;2024-03-17T09:21:04;100099.72;;;13.42;81.16
26719;BME280;14326;50.794;6.060;2024-03-17T09:23:33;100103.28;;;13.44;79.75
26719;BME280;14326;50.794;6.060;2024-03-17T09:26:01;100099.75;;;13.51;80.13
26719;BME280;14326;50.794;6.060;2024-03-17T09:28:30;100097.13;;;13.67;79.16
26719;BME280;14326;50.794;6.060;2024-03-17T09:30:57;100093.56;;;13.63;79.12
26719;BME280;14326;50.794;6.060;2024-03-17T09:33:25;100102.53;;;13.71;78.71
26719;BME280;14326;50.794;6.060;2024-03-17T09:35:53;100094.56;;;13.86;76.69
26719;BME280;14326;50.794;6.060;2024-03-17T09:38:20;100095.50;;;13.99;78.33
26719;BME280;14326;50.794;6.060;2024-03-17T09:40:47;100099.94;;;13.89;75.14
26719;BME280;14326;50.794;6.060;2024-03-17T09:43:16;100102.63;;;14.05;76.01
26719;BME280;14326;50.794;6.060;2024-03-17T09:45:44;100097.28;;;13.96;77.44
26719;BME280;14326;50.794;6.060;2024-03-17T09:48:14;100107.97;;;13.94;78.05
26719;BME280;14326;50.794;6.060;2024-03-17T09:50:41;100108.00;;;14.06;78.83
26719;BME280;14326;50.794;6.060;2024-03-17T09:53:13;100096.41;;;14.01;76.47
26719;BME280;14326;50.794;6.060;2024-03-17T09:55:42;100091.94;;;14.06;77.35
26719;BME280;14326;50.794;6.060;2024-03-17T09:58:15;100098.22;;;14.20;75.39
26719;BME280;14326;50.794;6.060;2024-03-17T10:00:44;100092.88;;;14.17;73.66
26719;BME280;14326;50.794;6.060;2024-03-17T10:03:11;100095.53;;;14.11;77.53
26719;BME280;14326;50.794;6.060;2024-03-17T10:05:38;100096.41;;;14.10;76.74
26719;BME280;14326;50.794;6.060;2024-03-17T10:08:05;100092.88;;;14.19;76.23
26719;BME280;14326;50.794;6.060;2024-03-17T10:10:34;100095.53;;;14.20;75.55
26719;BME280;14326;50.794;6.060;2024-03-17T10:13:01;100093.75;;;14.13;75.05
26719;BME280;14326;50.794;6.060;2024-03-17T10:15:28;100095.50;;;14.10;75.82
26719;BME280;14326;50.794;6.060;2024-03-17T10:17:56;100098.19;;;14.04;75.47
26719;BME280;14326;50.794;6.060;2024-03-17T10:20:24;100096.44;;;14.18;76.65
26719;BME280;14326;50.794;6.060;2024-03-17T10:22:58;100098.22;;;14.22;77.15
26719;BME280;14326;50.794;6.060;2024-03-17T10:25:25;100097.34;;;14.24;75.93
26719;BME280;14326;50.794;6.060;2024-03-17T10:27:52;100092.88;;;14.26;77.67
26719;BME280;14326;50.794;6.060;2024-03-17T10:30:19;100094.72;;;14.38;74.55
26719;BME280;14326;50.794;6.060;2024-03-17T10:32:52;100089.34;;;14.37;75.81
26719;BME280;14326;50.794;6.060;2024-03-17T10:35:31;100092.88;;;14.22;76.26
26719;BME280;14326;50.794;6.060;2024-03-17T10:38:00;100100.94;;;14.29;75.50
26719;BME280;14326;50.794;6.060;2024-03-17T10:40:28;100098.22;;;14.28;77.05
26719;BME280;14326;50.794;6.060;2024-03-17T10:42:56;100096.44;;;14.28;76.92
26719;BME280;14326;50.794;6.060;2024-03-17T10:45:23;100091.09;;;14.27;75.09
26719;BME280;14326;50.794;6.060;2024-03-17T10:47:51;100100.00;;;14.21;75.90
26719;BME280;14326;50.794;6.060;2024-03-17T10:50:19;100103.56;;;14.07;76.58
26719;BME280;14326;50.794;6.060;2024-03-17T10:52:49;100096.41;;;14.06;77.32
26719;BME280;14326;50.794;6.060;2024-03-17T10:55:21;100094.63;;;14.11;78.68
26719;BME280;14326;50.794;6.060;2024-03-17T10:57:49;100089.28;;;14.12;77.30
26719;BME280;14326;50.794;6.060;2024-03-17T11:00:17;100091.06;;;14.07;77.15
26719;BME280;14326;50.794;6.060;2024-03-17T11:02:45;100093.72;;;14.06;78.80
26719;BME280;14326;50.794;6.060;2024-03-17T11:05:15;100100.00;;;14.17;77.68
26719;BME280;14326;50.794;6.060;2024-03-17T11:07:44;100092.84;;;14.16;78.50
26719;BME280;14326;50.794;6.060;2024-03-17T11:10:18;100090.19;;;14.22;80.58
26719;BME280;14326;50.794;6.060;2024-03-17T11:12:46;100098.28;;;14.40;78.40
26719;BME280;14326;50.794;6.060;2024-03-17T11:15:39;100092.06;;;14.59;79.31
26719;BME280;14326;50.794;6.060;2024-03-17T11:18:37;100096.53;;;14.59;75.04
26719;BME280;14326;50.794;6.060;2024-03-17T11:21:18;100100.09;;;14.59;75.63
26719;BME280;14326;50.794;6.060;2024-03-17T11:23:57;100100.09;;;14.68;76.72
26719;BME280;14326;50.794;6.060;2024-03-17T11:26:30;100100.09;;;14.88;76.96
26719;BME280;14326;50.794;6.060;2024-03-17T11:28:57;100093.84;;;15.01;73.43
26719;BME280;14326;50.794;6.060;2024-03-17T11:31:39;100097.38;;;15.09;74.75
26719;BME280;14326;50.794;6.060;2024-03-17T11:34:29;100094.75;;;15.02;74.60
26719;BME280;14326;50.794;6.060;2024-03-17T11:36:56;100093.84;;;14.94;73.97
26719;BME280;14326;50.794;6.060;2024-03-17T11:39:52;100086.69;;;14.99;74.46
26719;BME280;14326;50.794;6.060;2024-03-17T11:42:24;100075.97;;;14.91;73.60
26719;BME280;14326;50.794;6.060;2024-03-17T11:45:03;100084.91;;;14.57;72.47
26719;BME280;14326;50.794;6.060;2024-03-17T11:47:34;100081.34;;;14.70;75.84
26719;BME280;14326;50.794;6.060;2024-03-17T11:50:03;100079.56;;;14.81;74.80
26719;BME280;14326;50.794;6.060;2024-03-17T11:52:31;100077.78;;;14.80;73.33
26719;BME280;14326;50.794;6.060;2024-03-17T11:54:56;100078.66;;;14.81;74.13
26719;BME280;14326;50.794;6.060;2024-03-17T11:57:25;100069.72;;;14.79;74.14
26719;BME280;14326;50.794;6.060;2024-03-17T11:59:52;100067.97;;;14.88;74.05
26719;BME280;14326;50.794;6.060;2024-03-17T12:02:21;100066.19;;;14.77;73.47
26719;BME280;14326;50.794;6.060;2024-03-17T12:04:47;100061.72;;;14.62;74.32
26719;BME280;14326;50.794;6.060;2024-03-17T12:07:15;100059.06;;;14.66;73.70
26719;BME280;14326;50.794;6.060;2024-03-17T12:09:42;100044.75;;;14.73;72.01
26719;BME280;14326;50.794;6.060;2024-03-17T12:12:16;100040.28;;;14.69;74.38
26719;BME280;14326;50.794;6.060;2024-03-17T12:14:43;100040.28;;;14.69;74.38
26719;BME280;14326;50.794;6.060;2024-03-17T12:17:12;100030.50;;;14.71;71.56
26719;BME280;14326;50.794;6.060;2024-03-17T12:19:39;100028.69;;;14.61;74.52
26719;BME280;14326;50.794;6.060;2024-03-17T12:22:08;100028.69;;;14.61;74.52
26719;BME280;14326;50.794;6.060;2024-03-17T12:24:35;100028.69;;;14.61;74.52
26719;BME280;14326;50.794;6.060;2024-03-17T12:27:04;57030.06;;;-142.25;100.00
26719;BME280;14326;50.794;6.060;2024-03-17T12:30:27;100018.91;;;14.47;76.03
26719;BME280;14326;50.794;6.060;2024-03-17T12:32:54;100001.00;;;14.12;75.58
26719;BME280;14326;50.794;6.060;2024-03-17T12:35:20;100009.03;;;14.20;75.74
26719;BME280;14326;50.794;6.060;2024-03-17T12:37:47;100010.84;;;14.24;76.60
26719;BME280;14326;50.794;6.060;2024-03-17T12:40:20;100009.91;;;14.26;77.42
26719;BME280;14326;50.794;6.060;2024-03-17T12:42:48;100006.34;;;14.26;76.02
26719;BME280;14326;50.794;6.060;2024-03-17T12:45:19;100010.84;;;14.39;75.25
26719;BME280;14326;50.794;6.060;2024-03-17T12:47:49;99995.69;;;14.53;72.94
26719;BME280;14326;50.794;6.060;2024-03-17T12:50:15;100001.03;;;14.52;72.19
26719;BME280;14326;50.794;6.060;2024-03-17T12:52:51;99996.59;;;14.52;73.00
26719;BME280;14326;50.794;6.060;2024-03-17T12:55:18;99997.47;;;14.50;70.95
26719;BME280;14326;50.794;6.060;2024-03-17T12:58:06;99993.91;;;14.66;73.11